Time;durP1;ratioP1;P1;durP2;ratioP2;P2;SDS_P1;SDS_P2;PMS_P1;PMS_P2;Temp;Humidity;BMP_temperature;BMP_pressure;BME280_temperature;BME280_humidity;BME280_pressure;Samples;Min_cycle;Max_cycle;Signal;HPM_P1;HPM_P2
2023/05/20 00:00:47;;;;;;;2.35;1.13;;;;;;;19.99;30.67;100288.94;5004971;28;20040;-66
2023/05/20 00:03:19;;;;;;;2.65;1.50;;;;;;;20.30;30.35;100283.03;5005469;28;20100;-68
2023/05/20 00:05:45;;;;;;;3.47;1.23;;;;;;;20.15;30.14;100282.38;5005355;28;20048;-67
2023/05/20 00:08:11;;;;;;;2.95;1.30;;;;;;;20.11;29.99;100281.09;5021158;28;20048;-66
2023/05/20 00:10:38;;;;;;;4.97;1.20;;;;;;;20.22;30.11;100279.72;5005106;28;20048;-66
2023/05/20 00:13:06;;;;;;;3.88;1.55;;;;;;;20.33;29.95;100281.81;5037596;28;20041;-67
2023/05/20 00:15:33;;;;;;;1.88;1.42;;;;;;;20.43;29.85;100280.38;5021216;28;20052;-67
2023/05/20 00:18:02;;;;;;;5.78;2.00;;;;;;;20.61;29.82;100274.34;5021467;28;20048;-68
2023/05/20 00:20:29;;;;;;;3.03;1.80;;;;;;;20.44;29.72;100275.78;5005203;28;20482;-68
2023/05/20 00:22:55;;;;;;;4.03;1.15;;;;;;;20.47;29.79;100280.75;5021081;28;20134;-67
2023/05/20 00:25:21;;;;;;;2.17;1.00;;;;;;;20.46;29.39;100279.09;5004867;28;20558;-68
2023/05/20 00:27:47;;;;;;;2.72;1.30;;;;;;;20.51;28.92;100279.34;5020841;28;20040;-68
2023/05/20 00:30:13;;;;;;;2.53;1.20;;;;;;;20.53;28.86;100285.34;5037285;28;20121;-68
2023/05/20 00:32:40;;;;;;;2.55;1.10;;;;;;;20.58;28.59;100285.56;5021168;28;20040;-68
2023/05/20 00:35:08;;;;;;;4.18;1.20;;;;;;;20.62;28.26;100284.94;5041503;28;20040;-68
2023/05/20 00:37:34;;;;;;;1.15;0.90;;;;;;;20.59;27.76;100281.84;5025207;28;20056;-67
2023/05/20 00:40:00;;;;;;;2.83;1.10;;;;;;;20.60;27.96;100281.63;5058089;28;20047;-67
2023/05/20 00:42:27;;;;;;;2.42;1.10;;;;;;;20.75;27.70;100276.00;5008492;28;20049;-67
2023/05/20 00:44:55;;;;;;;4.47;1.10;;;;;;;20.81;27.59;100286.81;5021921;28;20524;-67
2023/05/20 00:47:25;;;;;;;4.43;1.20;;;;;;;20.92;27.75;100282.66;5024706;28;20052;-67
2023/05/20 00:49:51;;;;;;;2.47;1.40;;;;;;;20.74;27.46;100275.16;5024547;28;20047;-67
2023/05/20 00:52:19;;;;;;;1.52;1.08;;;;;;;20.78;27.10;100283.69;5040996;28;20048;-67
2023/05/20 00:54:45;;;;;;;3.10;0.90;;;;;;;20.79;26.96;100286.19;5057374;28;20040;-66
2023/05/20 00:57:11;;;;;;;2.58;1.23;;;;;;;20.78;26.79;100287.22;5040883;28;20051;-67
2023/05/20 00:59:38;;;;;;;1.63;0.82;;;;;;;20.76;26.69;100281.19;5024436;28;20071;-67
2023/05/20 01:02:04;;;;;;;1.38;1.10;;;;;;;20.80;26.78;100287.03;5024679;28;20545;-67
2023/05/20 01:04:30;;;;;;;3.30;1.30;;;;;;;20.86;26.47;100286.19;5024555;28;20394;-67
2023/05/20 01:06:58;;;;;;;2.72;1.00;;;;;;;20.85;26.33;100277.25;4983540;28;20053;-67
2023/05/20 01:09:24;;;;;;;4.65;1.25;;;;;;;20.88;26.61;100286.81;5000262;28;20514;-67
2023/05/20 01:11:55;;;;;;;3.00;1.23;;;;;;;21.15;26.45;100281.22;4967904;28;20400;-67
2023/05/20 01:14:23;;;;;;;4.30;1.25;;;;;;;21.16;26.58;100284.72;5016433;28;20076;-67
2023/05/20 01:16:52;;;;;;;2.58;1.00;;;;;;;21.17;26.70;100287.22;4953194;28;20506;-67
2023/05/20 01:19:32;;;;;;;1.90;1.10;;;;;;;21.36;26.58;100280.09;4964551;28;20049;-67
2023/05/20 01:21:59;;;;;;;3.35;1.20;;;;;;;21.18;26.96;100277.25;4980833;28;20086;-67
2023/05/20 01:24:26;;;;;;;2.35;1.30;;;;;;;21.19;26.82;100277.03;4964385;28;20155;-67
2023/05/20 01:26:52;;;;;;;2.50;1.20;;;;;;;21.17;26.88;100278.31;4964178;28;20511;-67
2023/05/20 01:29:17;;;;;;;1.27;1.10;;;;;;;21.17;27.02;100284.50;4980206;28;20049;-67
2023/05/20 01:31:45;;;;;;;3.78;1.58;;;;;;;21.44;26.78;100283.44;4964228;28;20054;-66
2023/05/20 01:34:11;;;;;;;3.70;1.85;;;;;;;21.27;27.12;100278.69;4980226;28;20050;-68
2023/05/20 01:36:38;;;;;;;5.28;2.08;;;;;;;21.30;27.11;100283.66;4964257;28;20406;-67
2023/05/20 01:39:05;;;;;;;5.90;1.40;;;;;;;21.25;27.09;100287.00;5016932;28;20057;-66
2023/05/20 01:41:33;;;;;;;2.30;1.30;;;;;;;21.75;26.73;100281.88;5000705;28;20060;-66
2023/05/20 01:44:00;;;;;;;2.20;1.13;;;;;;;21.85;26.15;100285.78;5001151;28;20075;-68
2023/05/20 01:46:25;;;;;;;4.45;1.00;;;;;;;21.80;26.32;100291.03;4998915;28;20049;-67
2023/05/20 01:48:51;;;;;;;2.05;1.30;;;;;;;21.83;26.42;100290.59;4983336;28;20509;-67
2023/05/20 01:51:17;;;;;;;1.27;1.17;;;;;;;21.76;26.65;100294.38;4967236;28;20053;-67
2023/05/20 01:53:43;;;;;;;1.67;1.27;;;;;;;21.58;27.05;100295.03;4999601;28;20041;-69
2023/05/20 01:56:09;;;;;;;2.80;1.20;;;;;;;21.83;26.79;100292.47;4988411;28;20059;-68
2023/05/20 01:58:35;;;;;;;2.60;1.25;;;;;;;21.94;26.42;100298.03;5002539;28;20483;-68
2023/05/20 02:01:02;;;;;;;4.35;1.40;;;;;;;21.90;26.63;100290.56;5001972;28;20049;-68
2023/05/20 02:03:29;;;;;;;4.00;1.45;;;;;;;21.80;26.79;100287.50;5014900;28;20068;-68
2023/05/20 02:05:55;;;;;;;2.35;1.20;;;;;;;21.84;26.67;100289.53;5015139;28;20452;-68
2023/05/20 02:08:22;;;;;;;4.75;1.95;;;;;;;21.92;26.88;100293.88;4993424;28;20045;-68
2023/05/20 02:10:49;;;;;;;3.88;1.40;;;;;;;21.84;27.38;100283.31;4989917;28;20074;-68
2023/05/20 02:13:15;;;;;;;5.97;1.50;;;;;;;21.86;27.31;100283.94;5004682;28;20396;-68
2023/05/20 02:15:41;;;;;;;2.97;1.35;;;;;;;21.95;27.85;100282.63;5004129;28;20057;-68
2023/05/20 02:18:07;;;;;;;2.53;1.40;;;;;;;21.96;27.50;100284.31;5018022;28;20052;-68
2023/05/20 02:20:37;;;;;;;2.38;1.33;;;;;;;22.19;27.74;100280.00;5038042;28;20132;-68
2023/05/20 02:23:04;;;;;;;1.48;1.17;;;;;;;21.87;28.00;100281.00;5037801;28;20364;-67
2023/05/20 02:25:31;;;;;;;2.63;1.17;;;;;;;21.96;28.14;100274.28;5019658;28;20050;-69
2023/05/20 02:28:04;;;;;;;6.93;1.20;;;;;;;21.89;28.19;100278.91;5022275;28;20142;-68
2023/05/20 02:30:31;;;;;;;6.50;1.30;;;;;;;21.96;28.19;100279.72;5013516;28;20040;-67
2023/05/20 02:32:58;;;;;;;6.18;1.27;;;;;;;22.02;28.42;100276.13;5037610;28;20044;-66
2023/05/20 02:35:24;;;;;;;5.38;1.35;;;;;;;22.03;28.33;100274.28;5038705;28;20113;-69
2023/05/20 02:37:51;;;;;;;2.10;1.25;;;;;;;22.09;28.16;100270.69;5055797;28;20052;-67
2023/05/20 02:40:17;;;;;;;1.60;1.10;;;;;;;22.10;28.33;100280.47;5022752;28;20218;-67
2023/05/20 02:42:43;;;;;;;3.45;1.30;;;;;;;22.08;28.30;100282.56;5022530;28;20172;-67
2023/05/20 02:45:09;;;;;;;5.88;1.20;;;;;;;22.14;28.60;100277.09;5022815;28;20142;-67
2023/05/20 02:47:35;;;;;;;3.88;0.98;;;;;;;22.23;28.22;100281.25;5022537;28;20539;-68
2023/05/20 02:50:04;;;;;;;3.13;1.10;;;;;;;22.33;28.37;100281.56;5022620;28;20044;-66
2023/05/20 02:52:31;;;;;;;4.68;1.10;;;;;;;22.23;28.52;100275.00;5022228;28;20068;-68
2023/05/20 02:54:57;;;;;;;5.45;1.10;;;;;;;22.36;28.50;100281.13;5021902;28;20068;-67
2023/05/20 02:57:27;;;;;;;3.78;1.10;;;;;;;22.31;28.53;100280.16;5018069;28;20051;-66
2023/05/20 02:59:54;;;;;;;1.92;1.08;;;;;;;22.53;28.39;100276.88;5021928;28;20032;-67
2023/05/20 03:02:22;;;;;;;1.70;1.02;;;;;;;22.49;28.52;100281.06;5038669;28;20055;-68
2023/05/20 03:04:49;;;;;;;1.52;1.17;;;;;;;22.38;28.21;100276.34;5021862;28;20040;-68
2023/05/20 03:07:18;;;;;;;1.83;1.40;;;;;;;22.45;28.80;100281.72;5021649;28;20040;-69
2023/05/20 03:09:44;;;;;;;4.40;1.40;;;;;;;22.44;28.88;100283.59;5022560;28;20040;-69
2023/05/20 03:12:10;;;;;;;1.52;1.00;;;;;;;22.54;28.44;100283.13;5038860;28;20047;-67
2023/05/20 03:14:36;;;;;;;4.53;1.02;;;;;;;22.59;28.35;100292.25;5022163;28;20139;-67
2023/05/20 03:17:02;;;;;;;2.70;1.15;;;;;;;22.62;28.50;100280.97;5018289;28;20060;-68
2023/05/20 03:19:28;;;;;;;5.72;1.00;;;;;;;22.67;28.85;100296.56;5002306;28;20040;-67
2023/05/20 03:21:54;;;;;;;1.73;1.20;;;;;;;22.67;28.68;100286.56;5035008;28;20502;-66
2023/05/20 03:24:22;;;;;;;5.28;1.00;;;;;;;22.72;28.45;100299.44;5002403;28;20041;-67
2023/05/20 03:26:48;;;;;;;2.90;1.17;;;;;;;22.79;28.47;100289.38;5002032;28;20126;-67
2023/05/20 03:29:16;;;;;;;2.25;0.73;;;;;;;22.88;28.48;100282.66;5018352;28;20053;-66
2023/05/20 03:31:43;;;;;;;2.17;0.93;;;;;;;22.73;28.77;100277.56;5002498;28;20147;-67
2023/05/20 03:34:08;;;;;;;2.63;0.70;;;;;;;22.78;28.52;100283.16;5002134;28;20195;-66
2023/05/20 03:36:35;;;;;;;2.05;0.90;;;;;;;22.77;28.92;100284.19;5001995;28;20489;-66
2023/05/20 03:39:03;;;;;;;4.50;1.20;;;;;;;22.91;28.96;100277.59;5001742;28;20127;-66
2023/05/20 03:41:29;;;;;;;3.40;1.15;;;;;;;22.76;29.02;100279.81;5018084;28;20048;-66
2023/05/20 03:43:56;;;;;;;3.80;1.10;;;;;;;22.79;28.93;100283.97;5002010;28;20472;-66
2023/05/20 03:46:22;;;;;;;5.00;0.90;;;;;;;22.78;29.02;100283.16;5001537;28;20047;-66
2023/05/20 03:48:48;;;;;;;2.17;0.88;;;;;;;22.83;28.94;100285.19;5001783;28;20393;-67
2023/05/20 03:51:14;;;;;;;1.40;0.77;;;;;;;22.87;28.80;100284.53;5018272;28;20051;-67
2023/05/20 03:53:40;;;;;;;6.53;1.20;;;;;;;22.95;28.79;100283.41;5002068;28;20079;-67
2023/05/20 03:56:07;;;;;;;2.00;0.77;;;;;;;22.99;28.97;100288.16;5001724;28;20372;-67
2023/05/20 03:58:37;;;;;;;5.25;1.10;;;;;;;23.07;28.58;100287.06;5002488;28;20122;-66
2023/05/20 04:01:07;;;;;;;7.60;1.20;;;;;;;23.13;28.92;100284.28;5001990;28;20553;-67
2023/05/20 04:03:33;;;;;;;2.30;1.00;;;;;;;23.14;28.59;100283.22;5017914;28;20044;-66
2023/05/20 04:05:59;;;;;;;4.43;0.98;;;;;;;23.19;28.90;100290.69;5001284;28;20394;-67
2023/05/20 04:08:25;;;;;;;2.13;0.90;;;;;;;23.20;28.46;100282.31;5001279;28;20487;-66
2023/05/20 04:10:55;;;;;;;3.08;0.82;;;;;;;23.46;28.75;100286.69;5001571;28;20441;-67
2023/05/20 04:13:21;;;;;;;2.85;0.90;;;;;;;23.11;28.75;100286.38;5017602;28;20041;-67
2023/05/20 04:15:47;;;;;;;2.47;0.85;;;;;;;23.08;28.65;100286.00;5021604;28;20057;-66
2023/05/20 04:18:14;;;;;;;6.18;1.17;;;;;;;23.16;28.68;100286.56;5001809;28;20040;-66
2023/05/20 04:20:40;;;;;;;3.72;0.93;;;;;;;23.27;28.72;100293.13;5034403;28;20040;-67
2023/05/20 04:23:07;;;;;;;4.70;0.90;;;;;;;23.43;28.94;100284.44;5034303;28;20403;-66
2023/05/20 04:25:34;;;;;;;5.22;1.10;;;;;;;23.58;28.68;100286.75;5001237;28;20099;-66
2023/05/20 04:28:01;;;;;;;2.28;0.90;;;;;;;23.75;28.59;100293.22;5001498;28;20041;-66
2023/05/20 04:30:28;;;;;;;3.22;0.80;;;;;;;23.91;28.15;100288.00;5017690;28;20045;-67
2023/05/20 04:32:54;;;;;;;4.03;1.00;;;;;;;23.99;27.80;100286.88;5001088;28;20525;-67
2023/05/20 04:35:24;;;;;;;3.70;0.93;;;;;;;24.25;27.47;100286.53;5017647;28;20044;-67
2023/05/20 04:37:54;;;;;;;3.58;1.10;;;;;;;24.57;27.29;100285.22;5017675;28;20399;-66
2023/05/20 04:40:21;;;;;;;3.00;1.05;;;;;;;24.69;27.54;100289.63;5034212;28;20112;-68
2023/05/20 04:42:47;;;;;;;3.42;1.10;;;;;;;24.93;26.74;100285.06;5013600;28;20450;-69
2023/05/20 04:45:14;;;;;;;8.10;1.00;;;;;;;25.02;26.41;100285.56;5016950;28;20057;-67
2023/05/20 04:47:43;;;;;;;4.35;1.08;;;;;;;25.11;26.50;100293.09;5000365;28;20075;-66
2023/05/20 04:50:10;;;;;;;2.67;0.80;;;;;;;25.31;26.52;100290.84;4984184;28;20057;-67
2023/05/20 04:52:38;;;;;;;3.35;0.90;;;;;;;25.47;26.09;100294.78;5016737;28;20523;-68
2023/05/20 04:55:08;;;;;;;3.53;0.93;;;;;;;25.69;26.08;100290.38;4984604;28;20069;-66
2023/05/20 04:57:38;;;;;;;8.07;1.50;;;;;;;25.70;25.60;100281.97;4984688;28;20048;-68
2023/05/20 05:00:06;;;;;;;3.13;1.10;;;;;;;25.91;25.46;100292.19;5000592;28;20115;-67
2023/05/20 05:02:34;;;;;;;8.45;1.55;;;;;;;26.08;25.12;100295.00;4983951;28;20107;-67
2023/05/20 05:05:00;;;;;;;2.88;1.15;;;;;;;26.19;25.31;100297.69;4999956;28;20570;-66
2023/05/20 05:07:28;;;;;;;2.03;1.10;;;;;;;26.36;24.83;100304.00;5016787;28;20136;-67
2023/05/20 05:09:55;;;;;;;3.70;1.35;;;;;;;26.52;24.80;100298.81;4983781;28;20083;-67
2023/05/20 05:12:22;;;;;;;3.10;1.13;;;;;;;26.46;24.90;100290.56;5032581;28;20041;-67
2023/05/20 05:14:47;;;;;;;2.05;1.13;;;;;;;26.57;24.73;100286.09;5000182;28;20544;-68
2023/05/20 05:17:17;;;;;;;4.40;1.85;;;;;;;26.62;24.73;100286.22;4981741;28;20050;-67
2023/05/20 05:19:44;;;;;;;3.22;1.10;;;;;;;26.73;24.29;100296.25;4993225;28;20066;-66
2023/05/20 05:22:10;;;;;;;10.52;2.55;;;;;;;26.77;24.21;100291.94;4962331;28;20072;-69
2023/05/20 05:24:39;;;;;;;3.70;1.80;;;;;;;26.88;24.32;100284.78;4944153;28;20065;-70
2023/05/20 05:27:06;;;;;;;3.83;0.98;;;;;;;26.95;24.75;100278.09;4929477;28;20060;-72
2023/05/20 05:29:32;;;;;;;11.65;1.75;;;;;;;26.88;24.44;100276.59;4945207;28;20141;-69
2023/05/20 05:31:58;;;;;;;6.97;1.27;;;;;;;26.87;24.20;100280.38;4944636;28;20046;-66
2023/05/20 05:34:24;;;;;;;6.75;1.50;;;;;;;26.93;24.38;100273.94;4929231;28;20050;-66
2023/05/20 05:36:50;;;;;;;3.80;1.40;;;;;;;27.03;24.18;100274.09;4929340;28;20194;-71
2023/05/20 05:39:16;;;;;;;13.00;3.58;;;;;;;27.12;24.01;100272.59;4961169;28;20132;-68
2023/05/20 05:41:42;;;;;;;4.82;1.00;;;;;;;27.15;23.84;100275.66;4944950;28;20472;-65
2023/05/20 05:44:08;;;;;;;6.35;1.92;;;;;;;27.28;23.74;100279.94;4961246;28;20066;-66
2023/05/20 05:46:34;;;;;;;9.00;1.10;;;;;;;27.39;23.34;100279.84;4944818;28;20485;-65
2023/05/20 05:49:00;;;;;;;3.33;1.00;;;;;;;27.45;23.15;100278.00;4944907;28;20128;-66
2023/05/20 05:51:27;;;;;;;11.65;3.35;;;;;;;27.65;23.28;100268.19;4929150;28;20481;-66
2023/05/20 05:53:56;;;;;;;14.27;3.83;;;;;;;27.64;23.47;100274.75;4922782;29;20585;-65
2023/05/20 05:56:22;;;;;;;6.35;1.40;;;;;;;27.71;23.23;100278.09;4964511;28;20068;-66
2023/05/20 05:58:48;;;;;;;3.53;1.50;;;;;;;27.81;23.15;100285.59;4999781;28;20063;-66
2023/05/20 06:01:15;;;;;;;8.07;1.58;;;;;;;28.00;22.69;100281.47;4983832;28;20136;-66
2023/05/20 06:03:41;;;;;;;8.27;1.50;;;;;;;28.18;22.62;100278.41;4999390;28;21018;-68
2023/05/20 06:06:07;;;;;;;2.25;1.50;;;;;;;28.26;22.44;100277.97;4967010;28;20037;-70
2023/05/20 06:08:34;;;;;;;7.22;2.60;;;;;;;28.45;23.26;100276.50;4967095;28;20195;-67
2023/05/20 06:11:00;;;;;;;5.10;1.75;;;;;;;28.67;22.69;100277.28;4966955;28;20045;-68
2023/05/20 06:13:26;;;;;;;13.88;1.92;;;;;;;28.79;22.74;100275.19;4982969;28;20427;-69
2023/05/20 06:15:52;;;;;;;4.32;1.20;;;;;;;28.80;22.03;100282.31;4974485;28;20071;-72
2023/05/20 06:18:19;;;;;;;11.38;2.40;;;;;;;28.84;22.52;100277.97;4986808;28;20140;-67
2023/05/20 06:20:45;;;;;;;7.13;1.70;;;;;;;28.98;22.07;100283.81;4985882;28;20148;-68
2023/05/20 06:23:11;;;;;;;5.88;1.55;;;;;;;28.98;22.04;100275.63;4984739;28;20481;-68
2023/05/20 06:25:47;;;;;;;3.17;1.50;;;;;;;28.84;21.83;100283.44;5018346;28;20048;-67
2023/05/20 06:28:13;;;;;;;9.77;1.48;;;;;;;28.93;21.72;100279.16;5054158;28;20048;-67
2023/05/20 06:30:41;;;;;;;6.40;2.17;;;;;;;28.90;21.62;100287.03;5020795;28;20101;-66
2023/05/20 06:33:07;;;;;;;6.80;1.90;;;;;;;28.90;21.73;100281.56;5020944;28;20131;-68
2023/05/20 06:35:33;;;;;;;5.22;1.80;;;;;;;28.95;21.69;100276.16;5028968;28;20041;-67
2023/05/20 06:38:00;;;;;;;3.97;1.27;;;;;;;29.16;21.08;100281.53;5013833;28;20087;-70
2023/05/20 06:40:29;;;;;;;9.23;1.55;;;;;;;29.35;20.91;100281.94;5015748;28;20425;-66
2023/05/20 06:42:55;;;;;;;3.70;1.30;;;;;;;29.16;21.36;100272.50;5015957;28;20107;-68
2023/05/20 06:45:41;;;;;;;6.47;1.30;;;;;;;29.36;20.97;100270.72;5025310;28;20163;-66
2023/05/20 06:48:20;;;;;;;7.50;1.40;;;;;;;29.52;20.68;100269.69;4997022;28;20037;-67
2023/05/20 06:50:46;;;;;;;10.05;1.73;;;;;;;29.63;20.41;100269.75;5014795;28;20046;-67
2023/05/20 06:53:13;;;;;;;5.00;1.30;;;;;;;29.83;20.02;100278.88;5000502;28;20037;-67
2023/05/20 06:55:41;;;;;;;6.82;1.00;;;;;;;30.24;19.60;100277.13;4984523;28;20139;-67
2023/05/20 06:58:07;;;;;;;8.45;1.10;;;;;;;30.43;19.42;100275.53;5014261;28;20107;-68
2023/05/20 07:00:33;;;;;;;7.13;1.75;;;;;;;30.70;19.09;100284.31;4999573;28;20057;-67
2023/05/20 07:03:00;;;;;;;7.30;1.70;;;;;;;31.04;18.64;100286.25;5015274;28;20059;-68
2023/05/20 07:05:27;;;;;;;10.43;1.88;;;;;;;31.41;18.59;100288.72;5031945;28;20041;-67
2023/05/20 07:07:53;;;;;;;10.55;1.50;;;;;;;31.84;17.95;100288.06;4983382;28;20041;-69
2023/05/20 07:10:20;;;;;;;5.85;1.70;;;;;;;32.27;17.77;100276.28;4999923;28;20053;-68
2023/05/20 07:12:47;;;;;;;6.13;1.48;;;;;;;32.63;17.09;100280.44;4999069;28;20056;-68
2023/05/20 07:15:13;;;;;;;16.25;2.20;;;;;;;32.99;17.06;100277.41;5003330;28;20045;-69
2023/05/20 07:17:40;;;;;;;13.68;2.35;;;;;;;33.47;16.88;100276.41;5038576;28;20095;-68
2023/05/20 07:20:07;;;;;;;8.63;1.88;;;;;;;34.24;15.71;100274.03;5021720;28;20040;-68
2023/05/20 07:22:34;;;;;;;5.15;1.73;;;;;;;34.71;15.46;100275.00;5021998;28;20044;-68
2023/05/20 07:25:13;;;;;;;3.35;1.40;;;;;;;35.71;14.38;100274.00;5071366;28;20094;-68
2023/05/20 07:27:39;;;;;;;11.07;1.60;;;;;;;36.94;13.52;100269.81;5021686;28;20048;-69
2023/05/20 07:30:06;;;;;;;6.78;1.75;;;;;;;38.80;12.46;100274.63;5038091;28;20040;-73
2023/05/20 07:32:33;;;;;;;20.10;2.00;;;;;;;39.39;11.40;100274.47;5005694;28;20131;-67
2023/05/20 07:34:59;;;;;;;7.13;1.40;;;;;;;39.29;11.51;100277.59;5005579;28;20045;-68
2023/05/20 07:37:25;;;;;;;14.93;1.40;;;;;;;38.80;11.50;100258.75;5038279;28;20040;-68
2023/05/20 07:39:51;;;;;;;4.57;1.60;;;;;;;40.06;10.97;100274.50;5005202;28;20044;-70
2023/05/20 07:42:17;;;;;;;10.30;1.50;;;;;;;41.38;10.08;100275.09;5021548;28;20040;-71
2023/05/20 07:44:47;;;;;;;5.88;2.17;;;;;;;42.03;9.53;100281.69;5038841;28;20086;-69
2023/05/20 07:47:13;;;;;;;5.80;1.30;;;;;;;43.13;8.85;100267.81;5024819;28;20040;-68
2023/05/20 07:49:39;;;;;;;6.20;1.55;;;;;;;43.74;8.33;100270.97;5041067;28;20112;-68
2023/05/20 07:52:06;;;;;;;12.55;2.35;;;;;;;44.65;8.32;100275.91;5025007;28;20044;-70
2023/05/20 07:54:33;;;;;;;12.32;1.42;;;;;;;45.41;7.60;100264.56;5057803;28;20172;-69
2023/05/20 07:56:59;;;;;;;7.55;1.95;;;;;;;44.63;7.91;100273.47;5024529;28;20040;-69
2023/05/20 07:59:26;;;;;;;8.30;1.27;;;;;;;44.49;7.76;100270.34;5041727;28;20040;-69
2023/05/20 08:01:53;;;;;;;3.22;1.20;;;;;;;43.91;8.21;100262.22;5041137;28;20051;-70
2023/05/20 08:04:20;;;;;;;6.25;1.60;;;;;;;42.25;9.09;100262.44;5025050;28;20044;-69
2023/05/20 08:06:46;;;;;;;6.45;1.35;;;;;;;40.99;9.27;100261.78;5040881;28;20036;-68
2023/05/20 08:09:20;;;;;;;7.70;1.33;;;;;;;41.56;8.83;100272.94;5058740;28;20121;-67
2023/05/20 08:11:50;;;;;;;;;;;;;;;43.68;7.83;100264.84;5041653;28;20047;-68
2023/05/20 08:14:16;;;;;;;10.80;1.20;;;;;;;44.18;7.35;100256.44;5057615;28;19920;-69
2023/05/20 08:16:44;;;;;;;12.18;1.90;;;;;;;43.06;8.00;100253.59;5041382;28;20474;-69
2023/05/20 08:19:10;;;;;;;9.52;2.00;;;;;;;43.53;7.70;100250.88;5041251;28;20054;-69
2023/05/20 08:21:36;;;;;;;7.97;1.80;;;;;;;42.40;8.23;100258.09;5024391;28;20043;-68
2023/05/20 08:24:03;;;;;;;11.40;2.90;;;;;;;41.70;8.56;100243.50;5057261;28;20048;-68
2023/05/20 08:26:30;;;;;;;7.13;1.40;;;;;;;41.36;8.67;100248.72;5040426;28;20115;-69
2023/05/20 08:28:56;;;;;;;7.10;1.50;;;;;;;42.44;8.11;100251.44;5038752;28;20452;-69
2023/05/20 08:31:22;;;;;;;5.40;1.65;;;;;;;43.37;7.52;100239.66;5055702;28;20173;-69
2023/05/20 08:33:48;;;;;;;3.63;1.20;;;;;;;43.67;7.28;100242.81;5037566;28;20356;-69
2023/05/20 08:36:15;;;;;;;12.18;1.63;;;;;;;42.29;7.63;100240.19;5054510;28;20063;-69
2023/05/20 08:38:40;;;;;;;8.20;1.55;;;;;;;40.89;8.13;100242.69;5034110;28;20419;-69
2023/05/20 08:41:06;;;;;;;7.47;1.70;;;;;;;40.49;8.47;100240.78;5039251;28;20036;-69
2023/05/20 08:43:34;;;;;;;6.75;1.42;;;;;;;40.61;8.69;100232.47;5038612;28;20036;-69
2023/05/20 08:46:04;;;;;;;4.65;1.23;;;;;;;40.37;8.89;100235.97;5072788;28;20426;-71
2023/05/20 08:48:32;;;;;;;10.02;1.33;;;;;;;39.84;9.15;100230.28;5057202;28;20040;-70
2023/05/20 08:51:00;;;;;;;2.83;1.30;;;;;;;38.91;9.65;100231.44;5040844;28;20480;-68
2023/05/20 08:53:26;;;;;;;8.23;1.50;;;;;;;37.81;10.46;100233.84;5057507;28;20048;-68
2023/05/20 08:55:56;;;;;;;15.45;1.38;;;;;;;36.72;10.82;100224.69;5059027;28;20083;-68
2023/05/20 08:58:23;;;;;;;8.40;1.33;;;;;;;36.01;11.79;100214.50;5061385;28;20075;-69
2023/05/20 09:00:50;;;;;;;10.38;1.65;;;;;;;35.51;12.04;100223.84;5095462;28;20905;-68
2023/05/20 09:03:16;;;;;;;14.30;1.83;;;;;;;34.82;12.70;100216.56;5077501;28;20131;-69
2023/05/20 09:05:42;;;;;;;9.48;2.00;;;;;;;34.39;12.99;100215.09;5076172;28;20062;-68
2023/05/20 09:08:10;;;;;;;9.68;1.77;;;;;;;33.96;13.33;100219.84;5059106;28;20573;-68
2023/05/20 09:10:37;;;;;;;4.78;1.45;;;;;;;33.38;13.91;100221.16;5076097;28;20039;-68
2023/05/20 09:13:05;;;;;;;8.50;1.33;;;;;;;32.91;14.16;100232.06;5059006;28;20028;-68
2023/05/20 09:15:31;;;;;;;2.97;1.38;;;;;;;32.50;14.22;100231.59;5075745;28;20131;-67
2023/05/20 09:18:01;;;;;;;5.45;1.75;;;;;;;32.35;14.22;100226.19;5040881;28;20046;-68
2023/05/20 09:20:30;;;;;;;4.43;1.60;;;;;;;31.75;14.92;100234.75;5042938;28;20036;-68
2023/05/20 09:23:07;;;;;;;10.50;1.70;;;;;;;31.73;15.17;100225.13;5059478;28;20193;-67
2023/05/20 09:25:34;;;;;;;6.03;1.80;;;;;;;31.40;15.54;100232.13;5059077;28;20047;-67
2023/05/20 09:28:00;;;;;;;6.70;1.50;;;;;;;31.22;15.46;100240.94;5059494;28;20355;-67
2023/05/20 09:30:26;;;;;;;3.78;1.45;;;;;;;30.85;16.14;100237.72;5060676;28;20511;-68
2023/05/20 09:32:56;;;;;;;8.60;1.90;;;;;;;30.97;16.14;100230.00;5060165;28;20043;-68
2023/05/20 09:35:23;;;;;;;5.20;1.40;;;;;;;30.70;16.25;100240.44;5060243;28;20111;-72
2023/05/20 09:37:54;;;;;;;6.00;1.38;;;;;;;30.66;16.40;100242.09;5076793;28;20470;-68
2023/05/20 09:40:27;;;;;;;7.07;1.40;;;;;;;30.77;16.23;100249.22;5076920;28;20044;-67
2023/05/20 09:43:01;;;;;;;7.72;1.45;;;;;;;30.72;16.36;100241.00;5060174;28;20048;-69
2023/05/20 09:45:27;;;;;;;8.23;1.45;;;;;;;30.48;16.23;100246.19;5077175;28;20070;-68
2023/05/20 09:47:54;;;;;;;5.30;1.45;;;;;;;30.32;16.52;100241.78;5059782;28;20052;-67
2023/05/20 09:50:20;;;;;;;7.72;1.50;;;;;;;30.17;16.62;100238.19;5076726;28;20044;-69
2023/05/20 09:52:51;;;;;;;4.38;1.40;;;;;;;30.12;16.84;100236.25;5076884;28;20050;-68
2023/05/20 09:55:18;;;;;;;;;;;;;;;30.47;16.40;100238.25;5028279;28;20096;-68
2023/05/20 09:57:44;;;;;;;6.07;1.27;;;;;;;30.07;16.85;100240.91;5043372;28;19920;-68
2023/05/20 10:00:16;;;;;;;2.78;1.30;;;;;;;30.38;16.67;100251.69;5010714;28;20367;-68
2023/05/20 10:02:44;;;;;;;7.32;1.52;;;;;;;30.86;16.58;100255.84;5060743;28;20104;-67
2023/05/20 10:05:16;;;;;;;12.75;1.98;;;;;;;31.12;16.63;100251.97;5060100;28;20501;-68
2023/05/20 10:08:09;;;;;;;5.57;1.52;;;;;;;31.62;16.36;100251.00;5038222;28;20056;-68
2023/05/20 10:10:35;;;;;;;7.38;2.00;;;;;;;31.53;16.34;100253.53;5055258;28;20040;-68
2023/05/20 10:13:17;;;;;;;7.95;1.73;;;;;;;31.91;16.23;100254.75;5055359;28;20138;-68
2023/05/20 10:15:55;;;;;;;6.07;1.77;;;;;;;31.99;16.09;100263.25;5054977;28;20510;-67
2023/05/20 10:18:53;;;;;;;4.20;1.67;;;;;;;31.81;15.95;100258.34;5038316;28;20047;-68
2023/05/20 10:21:23;;;;;;;6.28;1.45;;;;;;;31.59;16.34;100257.06;5004063;28;20489;-68
2023/05/20 10:23:50;;;;;;;5.97;1.33;;;;;;;31.74;15.98;100262.47;5071734;28;20081;-71
2023/05/20 10:26:16;;;;;;;2.63;1.48;;;;;;;31.53;16.12;100259.00;5071551;28;20051;-68
2023/05/20 10:28:47;;;;;;;4.40;1.48;;;;;;;31.59;16.49;100252.41;5039010;28;20052;-68
2023/05/20 10:31:19;;;;;;;4.50;1.23;;;;;;;32.01;16.05;100255.53;5054873;28;20045;-68
2023/05/20 10:33:46;;;;;;;4.97;1.38;;;;;;;32.32;15.76;100265.22;5038379;28;20095;-68
2023/05/20 10:36:29;;;;;;;3.17;1.40;;;;;;;32.61;15.63;100266.13;5038093;28;20052;-68
2023/05/20 10:38:57;;;;;;;6.47;1.63;;;;;;;32.63;15.59;100260.34;5034421;28;20044;-68
2023/05/20 10:41:27;;;;;;;3.47;1.25;;;;;;;32.67;15.63;100258.69;5042598;28;20036;-69
2023/05/20 10:44:01;;;;;;;;;;;;;;;32.49;15.26;100254.69;5043067;28;20047;-68
2023/05/20 10:46:27;;;;;;;8.02;2.28;;;;;;;31.66;16.03;100263.09;5058709;28;19916;-69
2023/05/20 10:48:52;;;;;;;5.32;1.67;;;;;;;31.41;15.97;100260.44;5042319;28;20046;-68
2023/05/20 10:51:20;;;;;;;5.53;1.70;;;;;;;31.12;16.42;100258.25;5042259;28;20051;-68
2023/05/20 10:53:46;;;;;;;5.45;1.40;;;;;;;30.68;16.56;100256.34;5058948;28;20036;-68
2023/05/20 10:56:22;;;;;;;6.68;1.50;;;;;;;30.69;16.96;100249.78;5058742;28;20092;-68
2023/05/20 10:58:50;;;;;;;2.92;1.40;;;;;;;30.18;17.48;100256.28;5056330;28;20051;-67
2023/05/20 11:01:17;;;;;;;7.72;2.00;;;;;;;29.85;17.88;100265.75;5040824;28;20290;-68
2023/05/20 11:03:45;;;;;;;4.60;1.48;;;;;;;29.60;18.09;100260.13;5023151;28;20048;-67
2023/05/20 11:06:18;;;;;;;4.03;1.38;;;;;;;29.42;18.21;100264.16;5057440;28;20453;-67
2023/05/20 11:08:45;;;;;;;5.72;1.45;;;;;;;29.35;18.25;100263.56;5057088;28;20070;-68
2023/05/20 11:11:12;;;;;;;8.65;1.40;;;;;;;29.27;18.54;100266.84;5040231;28;20393;-68
2023/05/20 11:13:38;;;;;;;3.83;1.50;;;;;;;28.86;18.51;100270.31;5055332;28;20040;-67
2023/05/20 11:16:05;;;;;;;5.93;1.45;;;;;;;28.72;18.89;100262.84;5073252;28;20078;-69
2023/05/20 11:18:32;;;;;;;6.28;1.60;;;;;;;28.79;18.68;100263.44;5039949;28;20126;-69
2023/05/20 11:20:59;;;;;;;4.15;1.70;;;;;;;28.64;18.86;100266.03;5056026;28;20056;-68
2023/05/20 11:23:29;;;;;;;3.05;1.65;;;;;;;28.78;18.90;100268.09;5057202;28;20412;-68
2023/05/20 11:25:57;;;;;;;9.88;1.73;;;;;;;28.68;18.87;100265.25;5074033;28;20123;-68
2023/05/20 11:28:24;;;;;;;6.70;1.63;;;;;;;28.75;18.82;100265.88;5073549;28;20126;-68